Berta — V2BQ6 — position and weather

sailwx.info

Track history (hours):
 
Tides and Currents Weather Stations Pressure Air Temp Water Temp Dewpoint Dewpoint Depression Visibility Wind Speed Wind Dir Waves Ship Positions

Berta

Last reported at 2017-May-12 13:32 UTC. Time now 2017-May-26 09:21 UTC.
Position N 49°49' W 004°11'.
Warning: this ship's position is 13 days out of date.

Length 118 m; draft 8.3 m.

Type: Cargo ship. MMSI: 304586000.

Date/timePositionNaut miles runAvg speedWind from/ knotsBaromVisibWave heightAir tempDewpointWater temp
2017-May-12 13:32N 49°49' W 004°11'512.7
2017-May-12 13:09N 49°50' W 004°04'412.9
2017-May-12 12:52N 49°52' W 003°58'513.0
2017-May-12 12:30N 49°53' W 003°51'613.0
2017-May-12 12:00N 49°55' W 003°42'612.0
2017-May-12 11:30N 49°55' W 003°33'612.7
2017-May-12 11:00N 49°56' W 003°23'612.2
2017-May-12 10:30N 49°58' W 003°14'611.7
2017-May-12 10:00N 49°59' W 003°05'611.1
2017-May-12 09:30N 50°01' W 002°57'510.6
2017-May-12 09:00N 50°02' W 002°49'610.3
2017-May-12 08:27N 50°03' W 002°40'810.0
2017-May-12 07:37N 50°06' W 002°28'7513.3
2017-May-12 01:58N 50°26' W 000°34'714.1
2017-May-12 01:29N 50°28' W 000°24'713.5
2017-May-12 01:00N 50°30' W 000°14'613.1
2017-May-12 00:30N 50°31' W 000°05'612.6
2017-May-12 00:00N 50°33' E 000°05'612.1
2017-May-11 23:30N 50°34' E 000°14'611.5
2017-May-11 23:00N 50°36' E 000°23'511.2
2017-May-11 22:30N 50°38' E 000°31'510.8
2017-May-11 22:00N 50°41' E 000°39'611.1
2017-May-11 21:30N 50°44' E 000°46'611.7
2017-May-11 21:00N 50°47' E 000°54'612.5
2017-May-11 20:30N 50°51' E 001°02'713.4
2017-May-11 20:00N 50°55' E 001°10'714.4
2017-May-11 19:30N 50°60' E 001°18'815.2
2017-May-11 19:00N 51°05' E 001°28'815.1
2017-May-11 18:30N 51°09' E 001°37'713.9
2017-May-11 18:01N 51°14' E 001°45'713.3
2017-May-11 17:31N 51°20' E 001°50'612.3
2017-May-11 17:00N 51°25' E 001°56'612.0
2017-May-11 16:31N 51°30' E 002°02'611.4
2017-May-11 16:01N 51°34' E 002°08'611.2
2017-May-11 15:30N 51°38' E 002°14'611.1
2017-May-11 15:01N 51°42' E 002°20'510.7
2017-May-11 14:31N 51°46' E 002°25'1110.8
2017-May-11 13:31N 51°55' E 002°37'611.3
2017-May-11 13:01N 51°59' E 002°42'611.7
2017-May-11 12:31N 52°03' E 002°49'612.4
2017-May-11 12:00N 52°08' E 002°55'613.0
2017-May-11 11:31N 52°13' E 003°02'713.5
2017-May-11 11:01N 52°19' E 003°08'713.7
2017-May-11 10:31N 52°24' E 003°15'713.9
2017-May-11 10:00N 52°30' E 003°21'713.9
2017-May-11 09:30N 52°36' E 003°28'714.0
2017-May-11 09:00N 52°41' E 003°35'713.9
2017-May-11 08:30N 52°47' E 003°42'713.5
2017-May-11 08:00N 52°52' E 003°49'613.0
2017-May-11 07:30N 52°57' E 003°57'612.5
2017-May-11 07:00N 53°01' E 004°05'612.3
2017-May-11 06:30N 53°04' E 004°12'611.7
2017-May-11 06:00N 53°08' E 004°19'611.1
2017-May-11 05:30N 53°13' E 004°24'911.2
2017-May-11 04:42N 53°21' E 004°32'311.1
2017-May-11 04:25N 53°24' E 004°34'610.9
2017-May-11 03:53N 53°28' E 004°41'1512.7
2017-May-11 02:41N 53°34' E 005°04'313.6
2017-May-11 02:29N 53°35' E 005°09'613.7
2017-May-11 02:00N 53°38' E 005°19'3713.3
2017-May-10 23:13N 53°49' E 006°19'612.3
2017-May-10 22:44N 53°50' E 006°28'4810.3
2017-May-10 18:05N 53°53' E 007°50'1 9.9
2017-May-10 18:00N 53°53' E 007°51'5 9.9
2017-May-10 17:30N 53°51' E 007°59'612.8
2017-May-10 17:00N 53°48' E 008°08'713.8
2017-May-10 16:31N 53°43' E 008°17'714.6
2017-May-10 16:00N 53°38' E 008°26'713.2
2017-May-10 15:30N 53°33' E 008°33'4 9.0
2017-May-10 15:00N 53°29' E 008°30'1111.4
2017-May-10 14:01N 53°18' E 008°30'611.1
2017-May-10 13:31N 53°12' E 008°30'4 8.1
2017-May-10 13:01N 53°10' E 008°36'4 8.0
2017-May-10 12:30N 53°07' E 008°41'3 5.4
2017-May-10 12:00N 53°06' E 008°45'0 0.0
2017-May-10 11:29N 53°06' E 008°45'0 0.0
2017-May-10 10:59N 53°06' E 008°45'0 0.0
2017-May-10 10:29N 53°06' E 008°45'0 0.0
2017-May-10 09:59N 53°06' E 008°45'0 0.0
2017-May-10 09:29N 53°06' E 008°45'0 0.0
2017-May-10 08:59N 53°06' E 008°45'0 0.0
2017-May-10 08:29N 53°06' E 008°45'0 0.0
2017-May-10 07:59N 53°06' E 008°45'0 0.0
2017-May-10 07:29N 53°06' E 008°45'0 0.0
2017-May-10 06:59N 53°06' E 008°45'0 0.0
2017-May-10 06:29N 53°06' E 008°45'0 0.0
2017-May-10 05:59N 53°06' E 008°45'0 0.0
2017-May-10 05:29N 53°06' E 008°45'0 0.0
2017-May-10 04:59N 53°06' E 008°45'0 0.0
2017-May-10 04:29N 53°06' E 008°45'0 0.0
2017-May-10 03:59N 53°06' E 008°45'0 0.0
2017-May-10 03:29N 53°06' E 008°45'0 0.0
2017-May-10 02:59N 53°06' E 008°45'0 0.0
2017-May-10 02:29N 53°06' E 008°45'0 0.0
2017-May-10 01:59N 53°06' E 008°45'0 0.0
2017-May-10 01:29N 53°06' E 008°45'0 0.0
2017-May-10 00:59N 53°06' E 008°45'0 0.0
2017-May-10 00:29N 53°06' E 008°45'0 0.0
2017-May-09 23:59N 53°06' E 008°45'0 0.0
2017-May-09 23:29N 53°06' E 008°45'0 0.0
2017-May-09 22:59N 53°06' E 008°45'0 0.0
2017-May-09 22:29N 53°06' E 008°45'0 0.0
2017-May-09 21:59N 53°06' E 008°45'0 0.0
2017-May-09 21:29N 53°06' E 008°45'0 0.0
2017-May-09 20:59N 53°06' E 008°45'0 0.0
2017-May-09 20:29N 53°06' E 008°45'0 0.0
2017-May-09 19:59N 53°06' E 008°45'0 0.0
2017-May-09 19:29N 53°06' E 008°45'0 0.0
2017-May-09 18:59N 53°06' E 008°45'0 0.0
2017-May-09 18:29N 53°06' E 008°45'0 0.0
2017-May-09 17:59N 53°06' E 008°45'0 0.0
2017-May-09 17:29N 53°06' E 008°45'0 0.0
2017-May-09 16:59N 53°06' E 008°45'0 0.0
2017-May-09 16:29N 53°06' E 008°45'0 0.0
2017-May-09 15:59N 53°06' E 008°45'0 0.0
2017-May-09 15:29N 53°06' E 008°45'0 0.0
2017-May-09 14:59N 53°06' E 008°45'0 0.0
2017-May-09 13:59N 53°06' E 008°45'0 0.0
2017-May-09 13:29N 53°06' E 008°45'0 0.0
2017-May-09 12:59N 53°06' E 008°45'0 0.0
2017-May-09 12:29N 53°06' E 008°45'0 0.0
2017-May-09 12:00N 53°06' E 008°45'0 0.0
2017-May-09 11:29N 53°06' E 008°45'0 0.0
2017-May-09 10:59N 53°06' E 008°45'0 0.0
2017-May-09 10:29N 53°06' E 008°45'0 0.0
2017-May-09 09:59N 53°06' E 008°45'0 0.0
2017-May-09 09:29N 53°06' E 008°45'0 0.0
2017-May-09 08:59N 53°06' E 008°45'0 0.0
2017-May-09 08:31N 53°06' E 008°45'0 0.0
2017-May-09 08:00N 53°06' E 008°45'0 0.0
2017-May-09 07:30N 53°06' E 008°45'0 0.0
2017-May-09 07:01N 53°06' E 008°45'0 0.0
2017-May-09 06:30N 53°06' E 008°45'0 0.0
2017-May-09 06:01N 53°06' E 008°45'0 0.0
2017-May-09 05:31N 53°06' E 008°45'0 0.0
2017-May-09 05:00N 53°06' E 008°45'0 0.0
2017-May-09 04:30N 53°06' E 008°45'0 0.0
2017-May-09 04:00N 53°06' E 008°45'0 0.0
2017-May-09 03:30N 53°06' E 008°45'0 0.0
2017-May-09 03:01N 53°06' E 008°45'0 0.0
2017-May-09 02:30N 53°06' E 008°45'0 0.0
2017-May-09 02:00N 53°06' E 008°45'0 0.0
2017-May-09 01:31N 53°06' E 008°45'0 0.0
2017-May-09 01:00N 53°06' E 008°45'0 0.0
2017-May-09 00:30N 53°06' E 008°45'0 0.0
2017-May-09 00:00N 53°06' E 008°45'0 0.0
2017-May-08 23:30N 53°06' E 008°45'0 0.0
2017-May-08 23:01N 53°06' E 008°45'0 0.0
2017-May-08 22:30N 53°06' E 008°45'0 0.0
2017-May-08 22:00N 53°06' E 008°45'0 0.0
2017-May-08 21:31N 53°06' E 008°45'0 0.0
2017-May-08 21:01N 53°06' E 008°45'0 0.0
2017-May-08 20:31N 53°06' E 008°45'0 0.0
2017-May-08 20:01N 53°06' E 008°45'0 0.0
2017-May-08 19:31N 53°06' E 008°45'0 0.0
2017-May-08 19:01N 53°06' E 008°45'0 0.0
2017-May-08 18:30N 53°06' E 008°45'0 0.0
2017-May-08 18:01N 53°06' E 008°45'0 0.0
2017-May-08 17:30N 53°06' E 008°45'0 0.0
2017-May-08 17:01N 53°06' E 008°45'0 0.0
2017-May-08 16:31N 53°06' E 008°45'0 0.0
2017-May-08 16:01N 53°06' E 008°45'0 0.0
2017-May-08 15:30N 53°06' E 008°45'0 0.0
2017-May-08 15:00N 53°06' E 008°45'0 0.0
2017-May-08 14:00N 53°06' E 008°45'0 0.0
2017-May-08 13:30N 53°06' E 008°45'0 0.0
2017-May-08 13:01N 53°06' E 008°45'0 0.0
2017-May-08 12:30N 53°06' E 008°45'0 0.0
2017-May-08 12:01N 53°06' E 008°45'0 0.0
2017-May-08 11:31N 53°06' E 008°45'0 0.0
2017-May-08 11:01N 53°06' E 008°45'0 0.0
2017-May-08 10:31N 53°06' E 008°45'0 0.0
2017-May-08 10:00N 53°06' E 008°45'0 0.0
2017-May-08 09:30N 53°06' E 008°45'0 0.0
2017-May-08 09:00N 53°06' E 008°45'0 0.0
2017-May-08 08:31N 53°06' E 008°45'0 0.0
2017-May-08 08:00N 53°06' E 008°45'0 0.0
2017-May-08 07:31N 53°06' E 008°45'0 0.0
2017-May-08 07:01N 53°06' E 008°45'0 0.0
2017-May-08 06:31N 53°06' E 008°45'0 0.0
2017-May-08 06:00N 53°06' E 008°45'0 0.0
2017-May-08 05:31N 53°06' E 008°45'0 0.0
2017-May-08 05:00N 53°06' E 008°45'0 0.0
2017-May-08 04:31N 53°06' E 008°45'0 0.0
2017-May-08 04:00N 53°06' E 008°45'0 0.0
2017-May-08 03:31N 53°06' E 008°45'0 0.0
2017-May-08 03:01N 53°06' E 008°45'0 0.0
2017-May-08 02:30N 53°06' E 008°45'0 0.0
2017-May-08 02:01N 53°06' E 008°45'0 0.0
2017-May-08 01:30N 53°06' E 008°45'0 0.0
2017-May-08 01:01N 53°06' E 008°45'0 0.0
2017-May-08 00:30N 53°06' E 008°45'0 0.0
2017-May-08 00:01N 53°06' E 008°45'0 0.0
2017-May-07 23:31N 53°06' E 008°45'0 0.0
2017-May-07 23:00N 53°06' E 008°45'0 0.0
2017-May-07 22:30N 53°06' E 008°45'0 0.0
2017-May-07 22:01N 53°06' E 008°45'0 0.0
2017-May-07 21:30N 53°06' E 008°45'0 0.0
2017-May-07 21:01N 53°06' E 008°45'0 0.0
2017-May-07 20:31N 53°06' E 008°45'0 0.0
2017-May-07 20:00N 53°06' E 008°45'0 0.0
2017-May-07 19:31N 53°06' E 008°45'0 0.0
2017-May-07 19:00N 53°06' E 008°45'0 0.0
2017-May-07 18:31N 53°06' E 008°45'0 0.0
2017-May-07 18:00N 53°06' E 008°45'1 1.6
2017-May-07 17:30N 53°07' E 008°44'3 5.8
2017-May-07 17:00N 53°08' E 008°39'4 8.7
2017-May-07 16:31N 53°11' E 008°34'5 9.4
2017-May-07 16:01N 53°14' E 008°29'510.1
2017-May-07 15:30N 53°19' E 008°29'5 9.8
2017-May-07 15:00N 53°24' E 008°30'510.9
2017-May-07 14:31N 53°29' E 008°30'8 7.7
2017-May-07 13:30N 53°37' E 008°29'611.5
2017-May-07 13:00N 53°41' E 008°21'611.7
2017-May-07 12:30N 53°44' E 008°13'611.1
2017-May-07 12:00N 53°48' E 008°07'611.5
2017-May-07 11:30N 53°51' E 007°59'4 7.8
2017-May-07 11:00N 53°53' E 007°53'612.4
2017-May-07 10:30N 53°58' E 007°60'713.6
2017-May-07 10:00N 54°00' E 008°11'612.3
2017-May-07 09:30N 53°60' E 008°21'713.0
2017-May-07 09:00N 53°58' E 008°32'611.4
2017-May-07 08:31N 53°56' E 008°40'510.8
2017-May-07 08:00N 53°51' E 008°46'510.4
2017-May-07 07:31N 53°51' E 008°54'611.6
2017-May-07 07:00N 53°52' E 009°04'5 9.7
2017-May-07 06:31N 53°53' E 009°12'612.8
2017-May-07 06:00N 53°50' E 009°21'815.1
2017-May-07 05:31N 53°43' E 009°28'714.8
2017-May-07 05:01N 53°37' E 009°34'815.1
2017-May-07 04:30N 53°34' E 009°46'510.9
2017-May-07 04:00N 53°32' E 009°55'0 0.2
2017-May-07 03:30N 53°32' E 009°54'0 0.0
2017-May-07 03:00N 53°32' E 009°54'0 0.0
2017-May-07 02:30N 53°32' E 009°55'0 0.0
2017-May-07 02:00N 53°32' E 009°54'0 0.0
2017-May-07 01:30N 53°32' E 009°54'0 0.0
2017-May-07 01:00N 53°32' E 009°54'0 0.0
2017-May-07 00:30N 53°32' E 009°54'0 0.0
2017-May-07 00:00N 53°32' E 009°54'0 0.0
2017-May-06 23:30N 53°32' E 009°55'0 0.0
2017-May-06 23:00N 53°32' E 009°54'0 0.0
2017-May-06 22:30N 53°32' E 009°54'0 0.0
2017-May-06 22:00N 53°32' E 009°54'0 0.0
2017-May-06 21:30N 53°32' E 009°54'0 0.0
2017-May-06 21:00N 53°32' E 009°54'0 0.0
2017-May-06 20:30N 53°32' E 009°54'0 0.0
2017-May-06 20:00N 53°32' E 009°54'0 0.0
2017-May-06 19:30N 53°32' E 009°54'0 0.0
2017-May-06 19:00N 53°32' E 009°54'0 0.0
2017-May-06 18:30N 53°32' E 009°54'0 0.0
2017-May-06 18:00N 53°32' E 009°54'0 0.0
2017-May-06 17:30N 53°32' E 009°54'0 0.0
2017-May-06 17:00N 53°32' E 009°54'0 0.0
2017-May-06 16:30N 53°32' E 009°54'0 0.0
2017-May-06 16:00N 53°32' E 009°54'0 0.0
2017-May-06 15:30N 53°32' E 009°54'0 0.0
2017-May-06 15:00N 53°32' E 009°54'0 0.0
2017-May-06 14:30N 53°32' E 009°54'0 0.0
2017-May-06 13:30N 53°32' E 009°54'0 0.0
2017-May-06 13:00N 53°32' E 009°54'0 0.0
2017-May-06 12:30N 53°32' E 009°54'0 0.0
2017-May-06 12:00N 53°32' E 009°54'0 0.0
2017-May-06 11:30N 53°32' E 009°55'0 0.0
2017-May-06 11:00N 53°32' E 009°54'0 0.0
2017-May-06 10:30N 53°32' E 009°54'0 0.1
2017-May-06 10:00N 53°32' E 009°54'4 7.5
2017-May-06 09:30N 53°33' E 009°48'713.3
2017-May-06 09:01N 53°35' E 009°37'713.2
2017-May-06 08:31N 53°40' E 009°31'714.9
2017-May-06 08:01N 53°46' E 009°24'815.3
2017-May-06 07:30N 53°52' E 009°16'612.1
2017-May-06 07:01N 53°52' E 009°05'815.3
2017-May-06 06:30N 53°50' E 008°53'713.1
2017-May-06 06:00N 53°53' E 008°42'714.5
2017-May-06 05:30N 53°58' E 008°34'815.0
2017-May-06 05:00N 53°59' E 008°21'612.7
2017-May-06 04:30N 53°59' E 008°10'611.2
2017-May-06 04:00N 53°58' E 008°01'611.1
2017-May-06 03:30N 53°54' E 007°54'4 8.0
2017-May-06 03:00N 53°51' E 007°59'612.7
2017-May-06 02:31N 53°48' E 008°08'713.4
2017-May-06 02:01N 53°44' E 008°16'714.5
2017-May-06 01:30N 53°39' E 008°25'510.9
2017-May-06 01:00N 53°35' E 008°32'0 0.1
2017-May-06 00:30N 53°35' E 008°32'0 0.0
2017-May-06 00:00N 53°35' E 008°32'0 0.0
2017-May-05 23:30N 53°35' E 008°32'0 0.0
2017-May-05 23:00N 53°35' E 008°32'0 0.0
2017-May-05 22:30N 53°35' E 008°32'0 0.0
2017-May-05 22:00N 53°35' E 008°32'0 0.0
2017-May-05 21:30N 53°35' E 008°32'1 2.8
2017-May-05 21:00N 53°36' E 008°30'510.1
2017-May-05 20:30N 53°39' E 008°24'612.6
2017-May-05 20:00N 53°43' E 008°16'612.8
2017-May-05 19:30N 53°48' E 008°08'612.5
2017-May-05 19:00N 53°51' E 007°59'611.7
2017-May-05 18:30N 53°52' E 007°49'612.5
2017-May-05 18:00N 53°55' E 007°39'2 1.7
2017-May-05 16:45N 53°56' E 007°42'2 7.6
2017-May-05 16:30N 53°54' E 007°43'2 4.2
2017-May-05 16:00N 53°53' E 007°40'3 5.1
2017-May-05 15:30N 53°56' E 007°40'3810.6
2017-May-05 11:56N 54°30' E 007°12'510.7
2017-May-05 11:28N 54°35' E 007°09'510.7
2017-May-05 11:00N 54°39' E 007°06'511.0
2017-May-05 10:30N 54°44' E 007°02'510.8
2017-May-05 10:00N 54°49' E 006°57'510.0
2017-May-05 09:28N 54°54' E 006°54'510.2
2017-May-05 09:00N 54°58' E 006°51'510.6
2017-May-05 08:30N 55°04' E 006°49'510.8
2017-May-05 08:00N 55°09' E 006°46'510.9
2017-May-05 07:30N 55°14' E 006°44'511.0
2017-May-05 07:00N 55°19' E 006°42'611.4
2017-May-05 06:30N 55°25' E 006°39'16912.8
2017-May-04 17:17N 58°09' E 005°20'412.9
2017-May-04 17:00N 58°12' E 005°19'712.9
2017-May-04 16:30N 58°18' E 005°16'612.8
2017-May-04 16:00N 58°25' E 005°15'612.0
2017-May-04 15:30N 58°31' E 005°15'611.6
2017-May-04 15:00N 58°37' E 005°16'1212.5
2017-May-04 14:00N 58°49' E 005°18'612.0
2017-May-04 13:30N 58°55' E 005°18'612.3
2017-May-04 13:00N 59°01' E 005°19'611.2
2017-May-04 12:30N 59°06' E 005°23'612.1
2017-May-04 12:00N 59°10' E 005°32'713.1
2017-May-04 11:30N 59°15' E 005°41'712.9
2017-May-04 11:00N 59°19' E 005°51'612.8
2017-May-04 10:30N 59°22' E 006°02'611.1
2017-May-04 10:00N 59°26' E 006°10'612.8
2017-May-04 09:30N 59°31' E 006°16'612.5
2017-May-04 09:00N 59°37' E 006°19'2 3.3
2017-May-04 08:30N 59°39' E 006°22'0 0.0
2017-May-04 08:00N 59°39' E 006°22'0 0.0
2017-May-04 07:30N 59°39' E 006°22'0 0.0
2017-May-04 07:00N 59°39' E 006°22'0 0.0
2017-May-04 06:30N 59°39' E 006°22'0 0.0
2017-May-04 06:00N 59°39' E 006°22'0 1.0
2017-May-04 05:30N 59°38' E 006°21'510.6
2017-May-04 05:00N 59°33' E 006°17'612.0
2017-May-04 04:30N 59°28' E 006°13'510.4
2017-May-04 04:00N 59°24' E 006°05'612.1
2017-May-04 03:31N 59°20' E 005°56'612.2
2017-May-04 03:00N 59°17' E 005°46'612.3
2017-May-04 02:31N 59°13' E 005°38'612.5
2017-May-04 02:00N 59°08' E 005°30'510.6
2017-May-04 01:31N 59°06' E 005°20'5 9.2
2017-May-04 01:00N 59°07' E 005°11'510.9
2017-May-04 00:30N 59°11' E 005°04'611.5
2017-May-04 00:00N 59°16' E 004°59'611.6
2017-May-03 23:31N 59°22' E 004°58'611.7
2017-May-03 23:00N 59°27' E 004°56'612.1
2017-May-03 22:30N 59°33' E 004°55'612.0
2017-May-03 22:00N 59°39' E 004°53'612.0
2017-May-03 21:30N 59°45' E 004°52'612.1
2017-May-03 21:00N 59°51' E 004°51'612.0
2017-May-03 20:30N 59°57' E 004°49'611.5
2017-May-03 20:01N 60°03' E 004°47'611.7
2017-May-03 19:30N 60°09' E 004°46'611.7
2017-May-03 19:00N 60°15' E 004°44'611.8
2017-May-03 18:29N 60°21' E 004°42'611.8
2017-May-03 18:00N 60°26' E 004°41'612.1
2017-May-03 17:30N 60°32' E 004°39'611.9
2017-May-03 17:00N 60°38' E 004°37'611.8
2017-May-03 16:30N 60°44' E 004°36'612.0
2017-May-03 16:00N 60°50' E 004°34'611.4
2017-May-03 15:29N 60°55' E 004°41'612.7
2017-May-03 15:00N 61°00' E 004°48'1313.0
2017-May-03 14:00N 61°06' E 005°12'713.5
2017-May-03 13:30N 61°04' E 005°26'713.9
2017-May-03 13:01N 61°07' E 005°39'713.9
2017-May-03 12:30N 61°08' E 005°53'713.8
2017-May-03 12:00N 61°08' E 006°07'713.7
2017-May-03 11:30N 61°06' E 006°21'612.8
2017-May-03 11:00N 61°08' E 006°34'611.3
2017-May-03 10:30N 61°10' E 006°45'612.7
2017-May-03 10:00N 61°06' E 006°56'612.6
2017-May-03 09:31N 61°08' E 007°09'612.5
2017-May-03 09:00N 61°09' E 007°22'612.7
2017-May-03 08:30N 61°12' E 007°33'5 9.7
2017-May-03 08:00N 61°14' E 007°42'0 0.0
2017-May-03 07:28N 61°14' E 007°42'0 0.0
2017-May-03 06:58N 61°14' E 007°42'0 0.0
2017-May-03 06:28N 61°14' E 007°42'0 0.0
2017-May-03 05:58N 61°14' E 007°42'0 0.0
2017-May-03 05:28N 61°14' E 007°42'0 0.0
2017-May-03 04:55N 61°14' E 007°42'0 0.0
2017-May-03 04:28N 61°14' E 007°42'0 0.0
2017-May-03 03:58N 61°14' E 007°42'0 0.0
2017-May-03 03:28N 61°14' E 007°42'0 0.0
2017-May-03 02:58N 61°14' E 007°42'0 0.0
2017-May-03 02:29N 61°14' E 007°42'0 0.0
2017-May-03 01:59N 61°14' E 007°42'0 0.0
2017-May-03 01:29N 61°14' E 007°42'0 0.0
2017-May-03 00:59N 61°14' E 007°42'0 0.0
2017-May-03 00:29N 61°14' E 007°42'0 0.0
2017-May-02 23:59N 61°14' E 007°42'0 0.0
2017-May-02 23:29N 61°14' E 007°42'0 0.0
2017-May-02 22:59N 61°14' E 007°42'0 0.0
2017-May-02 22:29N 61°14' E 007°42'0 0.0
2017-May-02 21:59N 61°14' E 007°42'0 0.0
2017-May-02 21:29N 61°14' E 007°42'0 0.0
2017-May-02 20:59N 61°14' E 007°42'0 0.6
2017-May-02 20:29N 61°14' E 007°42'1 2.5
2017-May-02 20:00N 61°13' E 007°39'2 4.8
2017-May-02 19:30N 61°12' E 007°35'3 5.8
2017-May-02 19:00N 61°12' E 007°30'3 6.1
2017-May-02 18:30N 61°10' E 007°24'510.5
2017-May-02 18:00N 61°09' E 007°13'714.0
2017-May-02 17:30N 61°06' E 007°00'713.0
2017-May-02 17:00N 61°10' E 006°49'612.4
2017-May-02 16:30N 61°10' E 006°36'713.0
2017-May-02 16:00N 61°06' E 006°24'713.5
2017-May-02 15:30N 61°07' E 006°11'713.1
2017-May-02 15:00N 61°08' E 005°57'612.8
2017-May-02 14:30N 61°07' E 005°44'  
Track history (hours):
 
Tides and Currents Weather Stations Pressure Air Temp Water Temp Dewpoint Dewpoint Depression Visibility Wind Speed Wind Dir Waves Ship Positions

Berta

Last reported at 2017-May-12 13:32 UTC. Time now 2017-May-26 09:21 UTC.
Position N 49°49' W 004°11'.
Warning: this ship's position is 13 days out of date.

Length 118 m; draft 8.3 m.

Type: Cargo ship. MMSI: 304586000.

Date/timePositionNaut miles runAvg speedWind from/ knotsBaromVisibWave heightAir tempDewpointWater temp
2017-May-12 13:32N 49°49' W 004°11'512.7
2017-May-12 13:09N 49°50' W 004°04'412.9
2017-May-12 12:52N 49°52' W 003°58'513.0
2017-May-12 12:30N 49°53' W 003°51'613.0
2017-May-12 12:00N 49°55' W 003°42'612.0
2017-May-12 11:30N 49°55' W 003°33'612.7
2017-May-12 11:00N 49°56' W 003°23'612.2
2017-May-12 10:30N 49°58' W 003°14'611.7
2017-May-12 10:00N 49°59' W 003°05'611.1
2017-May-12 09:30N 50°01' W 002°57'510.6
2017-May-12 09:00N 50°02' W 002°49'610.3
2017-May-12 08:27N 50°03' W 002°40'810.0
2017-May-12 07:37N 50°06' W 002°28'7513.3
2017-May-12 01:58N 50°26' W 000°34'714.1
2017-May-12 01:29N 50°28' W 000°24'713.5
2017-May-12 01:00N 50°30' W 000°14'613.1
2017-May-12 00:30N 50°31' W 000°05'612.6
2017-May-12 00:00N 50°33' E 000°05'612.1
2017-May-11 23:30N 50°34' E 000°14'611.5
2017-May-11 23:00N 50°36' E 000°23'511.2
2017-May-11 22:30N 50°38' E 000°31'510.8
2017-May-11 22:00N 50°41' E 000°39'611.1
2017-May-11 21:30N 50°44' E 000°46'611.7
2017-May-11 21:00N 50°47' E 000°54'612.5
2017-May-11 20:30N 50°51' E 001°02'713.4
2017-May-11 20:00N 50°55' E 001°10'714.4
2017-May-11 19:30N 50°60' E 001°18'815.2
2017-May-11 19:00N 51°05' E 001°28'815.1
2017-May-11 18:30N 51°09' E 001°37'713.9
2017-May-11 18:01N 51°14' E 001°45'713.3
2017-May-11 17:31N 51°20' E 001°50'612.3
2017-May-11 17:00N 51°25' E 001°56'612.0
2017-May-11 16:31N 51°30' E 002°02'611.4
2017-May-11 16:01N 51°34' E 002°08'611.2
2017-May-11 15:30N 51°38' E 002°14'611.1
2017-May-11 15:01N 51°42' E 002°20'510.7
2017-May-11 14:31N 51°46' E 002°25'1110.8
2017-May-11 13:31N 51°55' E 002°37'611.3
2017-May-11 13:01N 51°59' E 002°42'611.7
2017-May-11 12:31N 52°03' E 002°49'612.4
2017-May-11 12:00N 52°08' E 002°55'613.0
2017-May-11 11:31N 52°13' E 003°02'713.5
2017-May-11 11:01N 52°19' E 003°08'713.7
2017-May-11 10:31N 52°24' E 003°15'713.9
2017-May-11 10:00N 52°30' E 003°21'713.9
2017-May-11 09:30N 52°36' E 003°28'714.0
2017-May-11 09:00N 52°41' E 003°35'713.9
2017-May-11 08:30N 52°47' E 003°42'713.5
2017-May-11 08:00N 52°52' E 003°49'613.0
2017-May-11 07:30N 52°57' E 003°57'612.5
2017-May-11 07:00N 53°01' E 004°05'612.3
2017-May-11 06:30N 53°04' E 004°12'611.7
2017-May-11 06:00N 53°08' E 004°19'611.1
2017-May-11 05:30N 53°13' E 004°24'911.2
2017-May-11 04:42N 53°21' E 004°32'311.1
2017-May-11 04:25N 53°24' E 004°34'610.9
2017-May-11 03:53N 53°28' E 004°41'1512.7
2017-May-11 02:41N 53°34' E 005°04'313.6
2017-May-11 02:29N 53°35' E 005°09'613.7
2017-May-11 02:00N 53°38' E 005°19'3713.3
2017-May-10 23:13N 53°49' E 006°19'612.3
2017-May-10 22:44N 53°50' E 006°28'4810.3
2017-May-10 18:05N 53°53' E 007°50'1 9.9
2017-May-10 18:00N 53°53' E 007°51'5 9.9
2017-May-10 17:30N 53°51' E 007°59'612.8
2017-May-10 17:00N 53°48' E 008°08'713.8
2017-May-10 16:31N 53°43' E 008°17'714.6
2017-May-10 16:00N 53°38' E 008°26'713.2
2017-May-10 15:30N 53°33' E 008°33'4 9.0
2017-May-10 15:00N 53°29' E 008°30'1111.4
2017-May-10 14:01N 53°18' E 008°30'611.1
2017-May-10 13:31N 53°12' E 008°30'4 8.1
2017-May-10 13:01N 53°10' E 008°36'4 8.0
2017-May-10 12:30N 53°07' E 008°41'3 5.4
2017-May-10 12:00N 53°06' E 008°45'0 0.0
2017-May-10 11:29N 53°06' E 008°45'0 0.0
2017-May-10 10:59N 53°06' E 008°45'0 0.0
2017-May-10 10:29N 53°06' E 008°45'0 0.0
2017-May-10 09:59N 53°06' E 008°45'0 0.0
2017-May-10 09:29N 53°06' E 008°45'0 0.0
2017-May-10 08:59N 53°06' E 008°45'0 0.0
2017-May-10 08:29N 53°06' E 008°45'0 0.0
2017-May-10 07:59N 53°06' E 008°45'0 0.0
2017-May-10 07:29N 53°06' E 008°45'0 0.0
2017-May-10 06:59N 53°06' E 008°45'0 0.0
2017-May-10 06:29N 53°06' E 008°45'0 0.0
2017-May-10 05:59N 53°06' E 008°45'0 0.0
2017-May-10 05:29N 53°06' E 008°45'0 0.0
2017-May-10 04:59N 53°06' E 008°45'0 0.0
2017-May-10 04:29N 53°06' E 008°45'0 0.0
2017-May-10 03:59N 53°06' E 008°45'0 0.0
2017-May-10 03:29N 53°06' E 008°45'0 0.0
2017-May-10 02:59N 53°06' E 008°45'0 0.0
2017-May-10 02:29N 53°06' E 008°45'0 0.0
2017-May-10 01:59N 53°06' E 008°45'0 0.0
2017-May-10 01:29N 53°06' E 008°45'0 0.0
2017-May-10 00:59N 53°06' E 008°45'0 0.0
2017-May-10 00:29N 53°06' E 008°45'0 0.0
2017-May-09 23:59N 53°06' E 008°45'0 0.0
2017-May-09 23:29N 53°06' E 008°45'0 0.0
2017-May-09 22:59N 53°06' E 008°45'0 0.0
2017-May-09 22:29N 53°06' E 008°45'0 0.0
2017-May-09 21:59N 53°06' E 008°45'0 0.0
2017-May-09 21:29N 53°06' E 008°45'0 0.0
2017-May-09 20:59N 53°06' E 008°45'0 0.0
2017-May-09 20:29N 53°06' E 008°45'0 0.0
2017-May-09 19:59N 53°06' E 008°45'0 0.0
2017-May-09 19:29N 53°06' E 008°45'0 0.0
2017-May-09 18:59N 53°06' E 008°45'0 0.0
2017-May-09 18:29N 53°06' E 008°45'0 0.0
2017-May-09 17:59N 53°06' E 008°45'0 0.0
2017-May-09 17:29N 53°06' E 008°45'0 0.0
2017-May-09 16:59N 53°06' E 008°45'0 0.0
2017-May-09 16:29N 53°06' E 008°45'0 0.0
2017-May-09 15:59N 53°06' E 008°45'0 0.0
2017-May-09 15:29N 53°06' E 008°45'0 0.0
2017-May-09 14:59N 53°06' E 008°45'0 0.0
2017-May-09 13:59N 53°06' E 008°45'0 0.0
2017-May-09 13:29N 53°06' E 008°45'0 0.0
2017-May-09 12:59N 53°06' E 008°45'0 0.0
2017-May-09 12:29N 53°06' E 008°45'0 0.0
2017-May-09 12:00N 53°06' E 008°45'0 0.0
2017-May-09 11:29N 53°06' E 008°45'0 0.0
2017-May-09 10:59N 53°06' E 008°45'0 0.0
2017-May-09 10:29N 53°06' E 008°45'0 0.0
2017-May-09 09:59N 53°06' E 008°45'0 0.0
2017-May-09 09:29N 53°06' E 008°45'0 0.0
2017-May-09 08:59N 53°06' E 008°45'0 0.0
2017-May-09 08:31N 53°06' E 008°45'0 0.0
2017-May-09 08:00N 53°06' E 008°45'0 0.0
2017-May-09 07:30N 53°06' E 008°45'0 0.0
2017-May-09 07:01N 53°06' E 008°45'0 0.0
2017-May-09 06:30N 53°06' E 008°45'0 0.0
2017-May-09 06:01N 53°06' E 008°45'0 0.0
2017-May-09 05:31N 53°06' E 008°45'0 0.0
2017-May-09 05:00N 53°06' E 008°45'0 0.0
2017-May-09 04:30N 53°06' E 008°45'0 0.0
2017-May-09 04:00N 53°06' E 008°45'0 0.0
2017-May-09 03:30N 53°06' E 008°45'0 0.0
2017-May-09 03:01N 53°06' E 008°45'0 0.0
2017-May-09 02:30N 53°06' E 008°45'0 0.0
2017-May-09 02:00N 53°06' E 008°45'0 0.0
2017-May-09 01:31N 53°06' E 008°45'0 0.0
2017-May-09 01:00N 53°06' E 008°45'0 0.0
2017-May-09 00:30N 53°06' E 008°45'0 0.0
2017-May-09 00:00N 53°06' E 008°45'0 0.0
2017-May-08 23:30N 53°06' E 008°45'0 0.0
2017-May-08 23:01N 53°06' E 008°45'0 0.0
2017-May-08 22:30N 53°06' E 008°45'0 0.0
2017-May-08 22:00N 53°06' E 008°45'0 0.0
2017-May-08 21:31N 53°06' E 008°45'0 0.0
2017-May-08 21:01N 53°06' E 008°45'0 0.0
2017-May-08 20:31N 53°06' E 008°45'0 0.0
2017-May-08 20:01N 53°06' E 008°45'0 0.0
2017-May-08 19:31N 53°06' E 008°45'0 0.0
2017-May-08 19:01N 53°06' E 008°45'0 0.0
2017-May-08 18:30N 53°06' E 008°45'0 0.0
2017-May-08 18:01N 53°06' E 008°45'0 0.0
2017-May-08 17:30N 53°06' E 008°45'0 0.0
2017-May-08 17:01N 53°06' E 008°45'0 0.0
2017-May-08 16:31N 53°06' E 008°45'0 0.0
2017-May-08 16:01N 53°06' E 008°45'0 0.0
2017-May-08 15:30N 53°06' E 008°45'0 0.0
2017-May-08 15:00N 53°06' E 008°45'0 0.0
2017-May-08 14:00N 53°06' E 008°45'0 0.0
2017-May-08 13:30N 53°06' E 008°45'0 0.0
2017-May-08 13:01N 53°06' E 008°45'0 0.0
2017-May-08 12:30N 53°06' E 008°45'0 0.0
2017-May-08 12:01N 53°06' E 008°45'0 0.0
2017-May-08 11:31N 53°06' E 008°45'0 0.0
2017-May-08 11:01N 53°06' E 008°45'0 0.0
2017-May-08 10:31N 53°06' E 008°45'0 0.0
2017-May-08 10:00N 53°06' E 008°45'0 0.0
2017-May-08 09:30N 53°06' E 008°45'0 0.0
2017-May-08 09:00N 53°06' E 008°45'0 0.0
2017-May-08 08:31N 53°06' E 008°45'0 0.0
2017-May-08 08:00N 53°06' E 008°45'0 0.0
2017-May-08 07:31N 53°06' E 008°45'0 0.0
2017-May-08 07:01N 53°06' E 008°45'0 0.0
2017-May-08 06:31N 53°06' E 008°45'0 0.0
2017-May-08 06:00N 53°06' E 008°45'0 0.0
2017-May-08 05:31N 53°06' E 008°45'0 0.0
2017-May-08 05:00N 53°06' E 008°45'0 0.0
2017-May-08 04:31N 53°06' E 008°45'0 0.0
2017-May-08 04:00N 53°06' E 008°45'0 0.0
2017-May-08 03:31N 53°06' E 008°45'0 0.0
2017-May-08 03:01N 53°06' E 008°45'0 0.0
2017-May-08 02:30N 53°06' E 008°45'0 0.0
2017-May-08 02:01N 53°06' E 008°45'0 0.0
2017-May-08 01:30N 53°06' E 008°45'0 0.0
2017-May-08 01:01N 53°06' E 008°45'0 0.0
2017-May-08 00:30N 53°06' E 008°45'0 0.0
2017-May-08 00:01N 53°06' E 008°45'0 0.0
2017-May-07 23:31N 53°06' E 008°45'0 0.0
2017-May-07 23:00N 53°06' E 008°45'0 0.0
2017-May-07 22:30N 53°06' E 008°45'0 0.0
2017-May-07 22:01N 53°06' E 008°45'0 0.0
2017-May-07 21:30N 53°06' E 008°45'0 0.0
2017-May-07 21:01N 53°06' E 008°45'0 0.0
2017-May-07 20:31N 53°06' E 008°45'0 0.0
2017-May-07 20:00N 53°06' E 008°45'0 0.0
2017-May-07 19:31N 53°06' E 008°45'0 0.0
2017-May-07 19:00N 53°06' E 008°45'0 0.0
2017-May-07 18:31N 53°06' E 008°45'0 0.0
2017-May-07 18:00N 53°06' E 008°45'1 1.6
2017-May-07 17:30N 53°07' E 008°44'3 5.8
2017-May-07 17:00N 53°08' E 008°39'4 8.7
2017-May-07 16:31N 53°11' E 008°34'5 9.4
2017-May-07 16:01N 53°14' E 008°29'510.1
2017-May-07 15:30N 53°19' E 008°29'5 9.8
2017-May-07 15:00N 53°24' E 008°30'510.9
2017-May-07 14:31N 53°29' E 008°30'8 7.7
2017-May-07 13:30N 53°37' E 008°29'611.5
2017-May-07 13:00N 53°41' E 008°21'611.7
2017-May-07 12:30N 53°44' E 008°13'611.1
2017-May-07 12:00N 53°48' E 008°07'611.5
2017-May-07 11:30N 53°51' E 007°59'4 7.8
2017-May-07 11:00N 53°53' E 007°53'612.4
2017-May-07 10:30N 53°58' E 007°60'713.6
2017-May-07 10:00N 54°00' E 008°11'612.3
2017-May-07 09:30N 53°60' E 008°21'713.0
2017-May-07 09:00N 53°58' E 008°32'611.4
2017-May-07 08:31N 53°56' E 008°40'510.8
2017-May-07 08:00N 53°51' E 008°46'510.4
2017-May-07 07:31N 53°51' E 008°54'611.6
2017-May-07 07:00N 53°52' E 009°04'5 9.7
2017-May-07 06:31N 53°53' E 009°12'612.8
2017-May-07 06:00N 53°50' E 009°21'815.1
2017-May-07 05:31N 53°43' E 009°28'714.8
2017-May-07 05:01N 53°37' E 009°34'815.1
2017-May-07 04:30N 53°34' E 009°46'510.9
2017-May-07 04:00N 53°32' E 009°55'0 0.2
2017-May-07 03:30N 53°32' E 009°54'0 0.0
2017-May-07 03:00N 53°32' E 009°54'0 0.0
2017-May-07 02:30N 53°32' E 009°55'0 0.0
2017-May-07 02:00N 53°32' E 009°54'0 0.0
2017-May-07 01:30N 53°32' E 009°54'0 0.0
2017-May-07 01:00N 53°32' E 009°54'0 0.0
2017-May-07 00:30N 53°32' E 009°54'0 0.0
2017-May-07 00:00N 53°32' E 009°54'0 0.0
2017-May-06 23:30N 53°32' E 009°55'0 0.0
2017-May-06 23:00N 53°32' E 009°54'0 0.0
2017-May-06 22:30N 53°32' E 009°54'0 0.0
2017-May-06 22:00N 53°32' E 009°54'0 0.0
2017-May-06 21:30N 53°32' E 009°54'0 0.0
2017-May-06 21:00N 53°32' E 009°54'0 0.0
2017-May-06 20:30N 53°32' E 009°54'0 0.0
2017-May-06 20:00N 53°32' E 009°54'0 0.0
2017-May-06 19:30N 53°32' E 009°54'0 0.0
2017-May-06 19:00N 53°32' E 009°54'0 0.0
2017-May-06 18:30N 53°32' E 009°54'0 0.0
2017-May-06 18:00N 53°32' E 009°54'0 0.0
2017-May-06 17:30N 53°32' E 009°54'0 0.0
2017-May-06 17:00N 53°32' E 009°54'0 0.0
2017-May-06 16:30N 53°32' E 009°54'0 0.0
2017-May-06 16:00N 53°32' E 009°54'0 0.0
2017-May-06 15:30N 53°32' E 009°54'0 0.0
2017-May-06 15:00N 53°32' E 009°54'0 0.0
2017-May-06 14:30N 53°32' E 009°54'0 0.0
2017-May-06 13:30N 53°32' E 009°54'0 0.0
2017-May-06 13:00N 53°32' E 009°54'0 0.0
2017-May-06 12:30N 53°32' E 009°54'0 0.0
2017-May-06 12:00N 53°32' E 009°54'0 0.0
2017-May-06 11:30N 53°32' E 009°55'0 0.0
2017-May-06 11:00N 53°32' E 009°54'0 0.0
2017-May-06 10:30N 53°32' E 009°54'0 0.1
2017-May-06 10:00N 53°32' E 009°54'4 7.5
2017-May-06 09:30N 53°33' E 009°48'713.3
2017-May-06 09:01N 53°35' E 009°37'713.2
2017-May-06 08:31N 53°40' E 009°31'714.9
2017-May-06 08:01N 53°46' E 009°24'815.3
2017-May-06 07:30N 53°52' E 009°16'612.1
2017-May-06 07:01N 53°52' E 009°05'815.3
2017-May-06 06:30N 53°50' E 008°53'713.1
2017-May-06 06:00N 53°53' E 008°42'714.5
2017-May-06 05:30N 53°58' E 008°34'815.0
2017-May-06 05:00N 53°59' E 008°21'612.7
2017-May-06 04:30N 53°59' E 008°10'611.2
2017-May-06 04:00N 53°58' E 008°01'611.1
2017-May-06 03:30N 53°54' E 007°54'4 8.0
2017-May-06 03:00N 53°51' E 007°59'612.7
2017-May-06 02:31N 53°48' E 008°08'713.4
2017-May-06 02:01N 53°44' E 008°16'714.5
2017-May-06 01:30N 53°39' E 008°25'510.9
2017-May-06 01:00N 53°35' E 008°32'0 0.1
2017-May-06 00:30N 53°35' E 008°32'0 0.0
2017-May-06 00:00N 53°35' E 008°32'0 0.0
2017-May-05 23:30N 53°35' E 008°32'0 0.0
2017-May-05 23:00N 53°35' E 008°32'0 0.0
2017-May-05 22:30N 53°35' E 008°32'0 0.0
2017-May-05 22:00N 53°35' E 008°32'0 0.0
2017-May-05 21:30N 53°35' E 008°32'1 2.8
2017-May-05 21:00N 53°36' E 008°30'510.1
2017-May-05 20:30N 53°39' E 008°24'612.6
2017-May-05 20:00N 53°43' E 008°16'612.8
2017-May-05 19:30N 53°48' E 008°08'612.5
2017-May-05 19:00N 53°51' E 007°59'611.7
2017-May-05 18:30N 53°52' E 007°49'612.5
2017-May-05 18:00N 53°55' E 007°39'2 1.7
2017-May-05 16:45N 53°56' E 007°42'2 7.6
2017-May-05 16:30N 53°54' E 007°43'2 4.2
2017-May-05 16:00N 53°53' E 007°40'3 5.1
2017-May-05 15:30N 53°56' E 007°40'3810.6
2017-May-05 11:56N 54°30' E 007°12'510.7
2017-May-05 11:28N 54°35' E 007°09'510.7
2017-May-05 11:00N 54°39' E 007°06'511.0
2017-May-05 10:30N 54°44' E 007°02'510.8
2017-May-05 10:00N 54°49' E 006°57'510.0
2017-May-05 09:28N 54°54' E 006°54'510.2
2017-May-05 09:00N 54°58' E 006°51'510.6
2017-May-05 08:30N 55°04' E 006°49'510.8
2017-May-05 08:00N 55°09' E 006°46'510.9
2017-May-05 07:30N 55°14' E 006°44'511.0
2017-May-05 07:00N 55°19' E 006°42'611.4
2017-May-05 06:30N 55°25' E 006°39'16912.8
2017-May-04 17:17N 58°09' E 005°20'412.9
2017-May-04 17:00N 58°12' E 005°19'712.9
2017-May-04 16:30N 58°18' E 005°16'612.8
2017-May-04 16:00N 58°25' E 005°15'612.0
2017-May-04 15:30N 58°31' E 005°15'611.6
2017-May-04 15:00N 58°37' E 005°16'1212.5
2017-May-04 14:00N 58°49' E 005°18'612.0
2017-May-04 13:30N 58°55' E 005°18'612.3
2017-May-04 13:00N 59°01' E 005°19'611.2
2017-May-04 12:30N 59°06' E 005°23'612.1
2017-May-04 12:00N 59°10' E 005°32'713.1
2017-May-04 11:30N 59°15' E 005°41'712.9
2017-May-04 11:00N 59°19' E 005°51'612.8
2017-May-04 10:30N 59°22' E 006°02'611.1
2017-May-04 10:00N 59°26' E 006°10'612.8
2017-May-04 09:30N 59°31' E 006°16'612.5
2017-May-04 09:00N 59°37' E 006°19'2 3.3
2017-May-04 08:30N 59°39' E 006°22'0 0.0
2017-May-04 08:00N 59°39' E 006°22'0 0.0
2017-May-04 07:30N 59°39' E 006°22'0 0.0
2017-May-04 07:00N 59°39' E 006°22'0 0.0
2017-May-04 06:30N 59°39' E 006°22'0 0.0
2017-May-04 06:00N 59°39' E 006°22'0 1.0
2017-May-04 05:30N 59°38' E 006°21'510.6
2017-May-04 05:00N 59°33' E 006°17'612.0
2017-May-04 04:30N 59°28' E 006°13'510.4
2017-May-04 04:00N 59°24' E 006°05'612.1
2017-May-04 03:31N 59°20' E 005°56'612.2
2017-May-04 03:00N 59°17' E 005°46'612.3
2017-May-04 02:31N 59°13' E 005°38'612.5
2017-May-04 02:00N 59°08' E 005°30'510.6
2017-May-04 01:31N 59°06' E 005°20'5 9.2
2017-May-04 01:00N 59°07' E 005°11'510.9
2017-May-04 00:30N 59°11' E 005°04'611.5
2017-May-04 00:00N 59°16' E 004°59'611.6
2017-May-03 23:31N 59°22' E 004°58'611.7
2017-May-03 23:00N 59°27' E 004°56'612.1
2017-May-03 22:30N 59°33' E 004°55'612.0
2017-May-03 22:00N 59°39' E 004°53'612.0
2017-May-03 21:30N 59°45' E 004°52'612.1
2017-May-03 21:00N 59°51' E 004°51'612.0
2017-May-03 20:30N 59°57' E 004°49'611.5
2017-May-03 20:01N 60°03' E 004°47'611.7
2017-May-03 19:30N 60°09' E 004°46'611.7
2017-May-03 19:00N 60°15' E 004°44'611.8
2017-May-03 18:29N 60°21' E 004°42'611.8
2017-May-03 18:00N 60°26' E 004°41'612.1
2017-May-03 17:30N 60°32' E 004°39'611.9
2017-May-03 17:00N 60°38' E 004°37'611.8
2017-May-03 16:30N 60°44' E 004°36'612.0
2017-May-03 16:00N 60°50' E 004°34'611.4
2017-May-03 15:29N 60°55' E 004°41'612.7
2017-May-03 15:00N 61°00' E 004°48'1313.0
2017-May-03 14:00N 61°06' E 005°12'713.5
2017-May-03 13:30N 61°04' E 005°26'713.9
2017-May-03 13:01N 61°07' E 005°39'713.9
2017-May-03 12:30N 61°08' E 005°53'713.8
2017-May-03 12:00N 61°08' E 006°07'713.7
2017-May-03 11:30N 61°06' E 006°21'612.8
2017-May-03 11:00N 61°08' E 006°34'611.3
2017-May-03 10:30N 61°10' E 006°45'612.7
2017-May-03 10:00N 61°06' E 006°56'612.6
2017-May-03 09:31N 61°08' E 007°09'612.5
2017-May-03 09:00N 61°09' E 007°22'612.7
2017-May-03 08:30N 61°12' E 007°33'5 9.7
2017-May-03 08:00N 61°14' E 007°42'0 0.0
2017-May-03 07:28N 61°14' E 007°42'0 0.0
2017-May-03 06:58N 61°14' E 007°42'0 0.0
2017-May-03 06:28N 61°14' E 007°42'0 0.0
2017-May-03 05:58N 61°14' E 007°42'0 0.0
2017-May-03 05:28N 61°14' E 007°42'0 0.0
2017-May-03 04:55N 61°14' E 007°42'0 0.0
2017-May-03 04:28N 61°14' E 007°42'0 0.0
2017-May-03 03:58N 61°14' E 007°42'0 0.0
2017-May-03 03:28N 61°14' E 007°42'0 0.0
2017-May-03 02:58N 61°14' E 007°42'0 0.0
2017-May-03 02:29N 61°14' E 007°42'0 0.0
2017-May-03 01:59N 61°14' E 007°42'0 0.0
2017-May-03 01:29N 61°14' E 007°42'0 0.0
2017-May-03 00:59N 61°14' E 007°42'0 0.0
2017-May-03 00:29N 61°14' E 007°42'0 0.0
2017-May-02 23:59N 61°14' E 007°42'0 0.0
2017-May-02 23:29N 61°14' E 007°42'0 0.0
2017-May-02 22:59N 61°14' E 007°42'0 0.0
2017-May-02 22:29N 61°14' E 007°42'0 0.0
2017-May-02 21:59N 61°14' E 007°42'0 0.0
2017-May-02 21:29N 61°14' E 007°42'0 0.0
2017-May-02 20:59N 61°14' E 007°42'0 0.6
2017-May-02 20:29N 61°14' E 007°42'1 2.5
2017-May-02 20:00N 61°13' E 007°39'2 4.8
2017-May-02 19:30N 61°12' E 007°35'3 5.8
2017-May-02 19:00N 61°12' E 007°30'3 6.1
2017-May-02 18:30N 61°10' E 007°24'510.5
2017-May-02 18:00N 61°09' E 007°13'714.0
2017-May-02 17:30N 61°06' E 007°00'713.0
2017-May-02 17:00N 61°10' E 006°49'612.4
2017-May-02 16:30N 61°10' E 006°36'713.0
2017-May-02 16:00N 61°06' E 006°24'713.5
2017-May-02 15:30N 61°07' E 006°11'713.1
2017-May-02 15:00N 61°08' E 005°57'612.8
2017-May-02 14:30N 61°07' E 005°44'  

Dump ship's entire track history